createdAt,value
2022-10-19T00:07:12.361Z,19.94
2022-10-19T00:17:13.833Z,19.70
2022-10-19T00:27:15.269Z,19.55
2022-10-19T00:37:16.732Z,19.58
2022-10-19T00:47:23.356Z,19.78
2022-10-19T00:57:28.545Z,19.92
2022-10-19T01:07:30.741Z,20.03
2022-10-19T01:17:48.981Z,19.76
2022-10-19T01:27:59.773Z,19.64
2022-10-19T01:38:14.361Z,19.71
2022-10-19T01:48:21.049Z,19.76
2022-10-19T01:58:27.974Z,19.86
2022-10-19T02:08:35.001Z,19.81
2022-10-19T02:18:46.264Z,19.58
2022-10-19T02:28:48.641Z,19.41
2022-10-19T02:38:50.166Z,19.47
2022-10-19T02:48:52.045Z,19.35
2022-10-19T02:58:53.880Z,19.45
2022-10-19T03:08:58.489Z,19.17
2022-10-19T03:18:59.966Z,18.77
2022-10-19T03:29:01.823Z,18.36
2022-10-19T03:39:11.518Z,18.26
2022-10-19T03:49:13.088Z,18.47
2022-10-19T03:59:15.821Z,18.43
2022-10-19T04:09:19.509Z,18.10
2022-10-19T04:19:20.990Z,17.97
2022-10-19T04:29:26.485Z,17.50
2022-10-19T04:39:31.146Z,17.54
2022-10-19T04:49:32.566Z,17.25
2022-10-19T04:59:34.057Z,17.39
2022-10-19T05:09:35.617Z,17.41
2022-10-19T05:19:37.074Z,17.49
2022-10-19T05:29:38.498Z,17.96
2022-10-19T05:39:40.073Z,17.97
2022-10-19T05:49:41.531Z,17.95
2022-10-19T05:59:42.970Z,17.86
2022-10-19T06:09:45.685Z,18.30
2022-10-19T06:19:47.137Z,18.08
2022-10-19T06:29:48.789Z,17.95
2022-10-19T06:39:50.333Z,17.85
2022-10-19T06:49:51.780Z,17.87
2022-10-19T06:59:53.791Z,17.97
2022-10-19T07:09:55.302Z,18.19
2022-10-19T07:19:57.029Z,18.65
2022-10-19T07:29:58.466Z,19.10
2022-10-19T07:40:00.201Z,19.69
2022-10-19T07:50:01.643Z,20.38
2022-10-19T08:00:04.123Z,26.07
2022-10-19T08:10:13.661Z,31.28
2022-10-19T08:20:16.057Z,37.70
2022-10-19T08:30:17.766Z,40.98
2022-10-19T08:40:24.024Z,43.42
2022-10-19T08:50:34.221Z,44.33
2022-10-19T09:10:44.123Z,42.38
2022-10-19T09:20:49.178Z,41.87
2022-10-19T09:30:53.186Z,41.26
2022-10-19T09:40:58.206Z,40.25
2022-10-19T09:51:03.333Z,40.47
2022-10-19T10:01:04.933Z,40.22
2022-10-19T10:11:09.035Z,38.04
2022-10-19T10:21:25.298Z,37.03
2022-10-19T10:31:29.772Z,36.92
2022-10-19T10:41:38.477Z,38.08
2022-10-19T10:51:53.161Z,37.15
2022-10-19T11:02:14.378Z,36.05
2022-10-19T11:12:20.022Z,29.66
2022-10-19T11:22:43.377Z,26.07
2022-10-19T11:33:22.219Z,24.62
2022-10-19T11:43:32.058Z,23.61
2022-10-19T11:53:50.523Z,23.64
2022-10-19T12:04:01.839Z,23.49
2022-10-19T12:14:09.484Z,23.77
2022-10-19T12:24:22.658Z,23.94
2022-10-19T12:34:48.205Z,24.21
2022-10-19T12:45:11.960Z,25.39
2022-10-19T12:55:16.355Z,25.24
2022-10-19T13:05:23.383Z,25.42
2022-10-19T13:15:34.057Z,25.72
2022-10-19T13:25:36.937Z,24.40
2022-10-19T13:35:38.945Z,24.43
2022-10-19T13:45:42.614Z,22.98
2022-10-19T13:55:55.588Z,22.82
2022-10-19T14:06:07.862Z,22.41
2022-10-19T14:16:22.532Z,21.99
2022-10-19T14:26:27.925Z,21.18
2022-10-19T14:36:39.518Z,21.03
2022-10-19T14:46:40.958Z,21.21
2022-10-19T14:56:55.518Z,20.58
2022-10-19T15:06:58.983Z,20.53
2022-10-19T15:17:02.843Z,20.28
2022-10-19T15:27:22.435Z,19.98
2022-10-19T15:37:24.650Z,19.80
2022-10-19T15:47:26.887Z,19.30
2022-10-19T15:57:40.199Z,19.36
2022-10-19T16:07:42.018Z,18.92
2022-10-19T16:17:47.165Z,18.80
2022-10-19T16:27:48.692Z,18.48
2022-10-19T16:37:50.114Z,18.19
2022-10-19T16:47:52.858Z,17.88
2022-10-19T16:57:54.297Z,17.77
2022-10-19T17:07:55.984Z,17.43
2022-10-19T17:17:58.002Z,17.28
2022-10-19T17:27:59.453Z,16.97
2022-10-19T17:38:00.882Z,16.67
2022-10-19T17:48:02.309Z,16.45
2022-10-19T17:58:05.325Z,16.16
2022-10-19T18:08:06.845Z,16.15
2022-10-19T18:18:08.290Z,16.08
2022-10-19T18:28:09.837Z,16.00
2022-10-19T18:38:11.297Z,15.96
2022-10-19T18:48:12.712Z,15.92
2022-10-19T18:58:14.173Z,15.80
2022-10-19T19:08:15.828Z,15.66
2022-10-19T19:28:19.655Z,15.15
2022-10-19T19:38:21.157Z,14.92
2022-10-19T19:48:22.791Z,14.93
2022-10-19T19:58:24.281Z,14.82
2022-10-19T20:08:26.467Z,14.64
2022-10-19T20:18:29.579Z,14.49
2022-10-19T20:28:34.087Z,14.35
2022-10-19T20:38:37.182Z,14.16
2022-10-19T20:48:39.700Z,13.86
2022-10-19T20:58:43.362Z,13.87
2022-10-19T21:08:46.239Z,13.74
2022-10-19T21:18:49.314Z,13.58
2022-10-19T21:28:53.191Z,13.57
2022-10-19T21:38:54.676Z,13.50
2022-10-19T21:48:56.392Z,13.40
2022-10-19T21:58:57.952Z,13.37
2022-10-19T22:08:59.916Z,13.28
2022-10-19T22:19:01.420Z,13.00
2022-10-19T22:29:04.773Z,12.88
2022-10-19T22:39:07.051Z,12.62
2022-10-19T22:59:15.489Z,12.67
2022-10-19T23:09:16.896Z,12.75
2022-10-19T23:19:18.468Z,12.79
2022-10-19T23:29:20.033Z,12.81
2022-10-19T23:39:21.465Z,12.82
2022-10-19T23:49:22.890Z,12.55
2022-10-19T23:59:24.333Z,12.67
